sensor_id;sensor_type;location;lat;lon;timestamp;P1;durP1;ratioP1;P2;durP2;ratioP2
1993;SDS011;998;49.906;10.908;2022-07-23T00:01:17;8.10;;;6.53;;
1993;SDS011;998;49.906;10.908;2022-07-23T00:03:45;7.60;;;6.23;;
1993;SDS011;998;49.906;10.908;2022-07-23T00:06:12;8.33;;;6.50;;
1993;SDS011;998;49.906;10.908;2022-07-23T00:08:39;11.43;;;6.53;;
1993;SDS011;998;49.906;10.908;2022-07-23T00:11:07;13.60;;;6.93;;
1993;SDS011;998;49.906;10.908;2022-07-23T00:13:34;7.90;;;5.93;;
1993;SDS011;998;49.906;10.908;2022-07-23T00:16:01;8.03;;;7.00;;
1993;SDS011;998;49.906;10.908;2022-07-23T00:18:28;8.13;;;6.83;;
1993;SDS011;998;49.906;10.908;2022-07-23T00:20:56;8.43;;;6.50;;
1993;SDS011;998;49.906;10.908;2022-07-23T00:23:23;8.20;;;6.13;;
1993;SDS011;998;49.906;10.908;2022-07-23T00:25:51;11.20;;;6.40;;
1993;SDS011;998;49.906;10.908;2022-07-23T00:28:18;7.50;;;6.07;;
1993;SDS011;998;49.906;10.908;2022-07-23T00:30:45;8.63;;;5.97;;
1993;SDS011;998;49.906;10.908;2022-07-23T00:48:25;9.77;;;6.10;;
1993;SDS011;998;49.906;10.908;2022-07-23T01:08:21;9.73;;;5.83;;
1993;SDS011;998;49.906;10.908;2022-07-23T01:19:33;8.50;;;6.27;;
1993;SDS011;998;49.906;10.908;2022-07-23T01:36:33;10.30;;;6.97;;
1993;SDS011;998;49.906;10.908;2022-07-23T01:39:00;9.07;;;7.03;;
1993;SDS011;998;49.906;10.908;2022-07-23T01:41:28;8.90;;;7.70;;
1993;SDS011;998;49.906;10.908;2022-07-23T01:43:55;7.70;;;6.87;;
1993;SDS011;998;49.906;10.908;2022-07-23T01:46:22;21.73;;;8.30;;
1993;SDS011;998;49.906;10.908;2022-07-23T01:48:49;8.80;;;6.87;;
1993;SDS011;998;49.906;10.908;2022-07-23T01:51:17;12.07;;;7.53;;
1993;SDS011;998;49.906;10.908;2022-07-23T01:59:00;7.97;;;7.17;;
1993;SDS011;998;49.906;10.908;2022-07-23T02:01:31;11.63;;;7.07;;
1993;SDS011;998;49.906;10.908;2022-07-23T02:04:19;8.77;;;7.67;;
1993;SDS011;998;49.906;10.908;2022-07-23T02:06:51;7.50;;;6.80;;
1993;SDS011;998;49.906;10.908;2022-07-23T02:20:52;7.87;;;6.70;;
1993;SDS011;998;49.906;10.908;2022-07-23T02:30:14;10.30;;;6.87;;
1993;SDS011;998;49.906;10.908;2022-07-23T02:56:13;8.60;;;6.77;;
1993;SDS011;998;49.906;10.908;2022-07-23T02:59:25;9.20;;;6.37;;
1993;SDS011;998;49.906;10.908;2022-07-23T03:02:24;7.10;;;6.17;;
1993;SDS011;998;49.906;10.908;2022-07-23T03:05:32;8.97;;;6.57;;
1993;SDS011;998;49.906;10.908;2022-07-23T03:08:40;9.93;;;8.13;;
1993;SDS011;998;49.906;10.908;2022-07-23T03:12:03;10.33;;;8.63;;
1993;SDS011;998;49.906;10.908;2022-07-23T03:22:16;10.20;;;8.07;;
1993;SDS011;998;49.906;10.908;2022-07-23T03:31:20;9.90;;;9.00;;
1993;SDS011;998;49.906;10.908;2022-07-23T03:34:07;15.73;;;9.60;;
1993;SDS011;998;49.906;10.908;2022-07-23T03:36:56;11.90;;;9.40;;
1993;SDS011;998;49.906;10.908;2022-07-23T03:39:30;11.30;;;9.40;;
1993;SDS011;998;49.906;10.908;2022-07-23T03:42:15;14.90;;;9.90;;
1993;SDS011;998;49.906;10.908;2022-07-23T03:44:48;12.37;;;9.20;;
1993;SDS011;998;49.906;10.908;2022-07-23T03:47:42;10.50;;;8.43;;
1993;SDS011;998;49.906;10.908;2022-07-23T03:53:55;11.73;;;9.43;;
1993;SDS011;998;49.906;10.908;2022-07-23T03:56:57;12.43;;;9.00;;
1993;SDS011;998;49.906;10.908;2022-07-23T04:02:48;10.87;;;9.73;;
1993;SDS011;998;49.906;10.908;2022-07-23T04:05:35;9.77;;;7.93;;
1993;SDS011;998;49.906;10.908;2022-07-23T04:11:52;11.20;;;8.20;;
1993;SDS011;998;49.906;10.908;2022-07-23T04:14:25;11.33;;;8.43;;
1993;SDS011;998;49.906;10.908;2022-07-23T04:20:19;10.23;;;8.63;;
1993;SDS011;998;49.906;10.908;2022-07-23T04:23:00;9.83;;;7.60;;
1993;SDS011;998;49.906;10.908;2022-07-23T04:25:46;9.60;;;8.10;;
1993;SDS011;998;49.906;10.908;2022-07-23T04:28:27;10.30;;;9.00;;
1993;SDS011;998;49.906;10.908;2022-07-23T04:34:12;9.57;;;8.63;;
1993;SDS011;998;49.906;10.908;2022-07-23T04:37:13;9.70;;;8.70;;
1993;SDS011;998;49.906;10.908;2022-07-23T04:39:40;10.47;;;8.90;;
1993;SDS011;998;49.906;10.908;2022-07-23T04:42:13;12.17;;;8.87;;
1993;SDS011;998;49.906;10.908;2022-07-23T04:44:53;9.43;;;8.43;;
1993;SDS011;998;49.906;10.908;2022-07-23T04:47:25;10.50;;;8.60;;
1993;SDS011;998;49.906;10.908;2022-07-23T04:50:23;9.97;;;8.93;;
1993;SDS011;998;49.906;10.908;2022-07-23T04:53:22;11.47;;;8.50;;
1993;SDS011;998;49.906;10.908;2022-07-23T04:59:50;10.50;;;9.07;;
1993;SDS011;998;49.906;10.908;2022-07-23T05:02:34;16.80;;;9.30;;
1993;SDS011;998;49.906;10.908;2022-07-23T05:08:10;13.27;;;10.30;;
1993;SDS011;998;49.906;10.908;2022-07-23T05:11:18;9.90;;;8.30;;
1993;SDS011;998;49.906;10.908;2022-07-23T05:13:54;10.77;;;8.80;;
1993;SDS011;998;49.906;10.908;2022-07-23T05:16:37;9.83;;;8.57;;
1993;SDS011;998;49.906;10.908;2022-07-23T05:19:13;10.87;;;9.80;;
1993;SDS011;998;49.906;10.908;2022-07-23T05:24:51;10.73;;;8.50;;
1993;SDS011;998;49.906;10.908;2022-07-23T05:27:46;10.37;;;8.70;;
1993;SDS011;998;49.906;10.908;2022-07-23T06:04:28;11.97;;;9.23;;
1993;SDS011;998;49.906;10.908;2022-07-23T06:06:57;10.60;;;7.83;;
1993;SDS011;998;49.906;10.908;2022-07-23T06:09:24;9.33;;;7.53;;
1993;SDS011;998;49.906;10.908;2022-07-23T06:11:51;10.20;;;8.07;;
1993;SDS011;998;49.906;10.908;2022-07-23T06:14:18;13.63;;;8.53;;
1993;SDS011;998;49.906;10.908;2022-07-23T06:16:45;11.23;;;8.40;;
1993;SDS011;998;49.906;10.908;2022-07-23T06:19:11;14.93;;;7.57;;
1993;SDS011;998;49.906;10.908;2022-07-23T06:21:40;11.40;;;8.10;;
1993;SDS011;998;49.906;10.908;2022-07-23T06:24:07;9.67;;;8.13;;
1993;SDS011;998;49.906;10.908;2022-07-23T06:26:34;13.33;;;7.57;;
1993;SDS011;998;49.906;10.908;2022-07-23T06:29:00;8.10;;;7.17;;
1993;SDS011;998;49.906;10.908;2022-07-23T06:31:27;9.43;;;7.70;;
1993;SDS011;998;49.906;10.908;2022-07-23T06:36:22;10.07;;;7.53;;
1993;SDS011;998;49.906;10.908;2022-07-23T06:38:50;10.40;;;7.00;;
1993;SDS011;998;49.906;10.908;2022-07-23T06:41:17;9.73;;;7.17;;
1993;SDS011;998;49.906;10.908;2022-07-23T06:43:44;11.47;;;7.17;;
1993;SDS011;998;49.906;10.908;2022-07-23T06:46:11;10.73;;;8.40;;
1993;SDS011;998;49.906;10.908;2022-07-23T06:48:37;14.87;;;7.63;;
1993;SDS011;998;49.906;10.908;2022-07-23T06:51:04;11.13;;;7.50;;
1993;SDS011;998;49.906;10.908;2022-07-23T06:53:31;8.60;;;7.37;;
1993;SDS011;998;49.906;10.908;2022-07-23T06:56:00;8.40;;;7.50;;
1993;SDS011;998;49.906;10.908;2022-07-23T06:58:27;8.87;;;7.63;;
1993;SDS011;998;49.906;10.908;2022-07-23T07:00:54;9.67;;;7.30;;
1993;SDS011;998;49.906;10.908;2022-07-23T07:03:22;13.30;;;8.20;;
1993;SDS011;998;49.906;10.908;2022-07-23T07:05:49;11.30;;;7.60;;
1993;SDS011;998;49.906;10.908;2022-07-23T07:08:17;10.27;;;8.00;;
1993;SDS011;998;49.906;10.908;2022-07-23T07:10:43;19.40;;;7.40;;
1993;SDS011;998;49.906;10.908;2022-07-23T07:13:12;8.67;;;7.00;;
1993;SDS011;998;49.906;10.908;2022-07-23T07:15:39;11.83;;;7.77;;
1993;SDS011;998;49.906;10.908;2022-07-23T07:18:06;13.30;;;7.30;;
1993;SDS011;998;49.906;10.908;2022-07-23T07:20:33;11.70;;;8.13;;
1993;SDS011;998;49.906;10.908;2022-07-23T07:22:59;7.07;;;5.40;;
1993;SDS011;998;49.906;10.908;2022-07-23T07:25:26;7.93;;;6.60;;
1993;SDS011;998;49.906;10.908;2022-07-23T07:27:53;5.80;;;5.13;;
1993;SDS011;998;49.906;10.908;2022-07-23T07:30:22;9.77;;;6.10;;
1993;SDS011;998;49.906;10.908;2022-07-23T07:32:49;12.20;;;5.90;;
1993;SDS011;998;49.906;10.908;2022-07-23T07:35:15;7.67;;;4.90;;
1993;SDS011;998;49.906;10.908;2022-07-23T07:37:42;5.93;;;4.83;;
1993;SDS011;998;49.906;10.908;2022-07-23T07:40:09;6.03;;;5.30;;
1993;SDS011;998;49.906;10.908;2022-07-23T07:42:43;7.17;;;5.43;;
1993;SDS011;998;49.906;10.908;2022-07-23T07:45:11;6.07;;;5.47;;
1993;SDS011;998;49.906;10.908;2022-07-23T07:47:39;6.90;;;5.43;;
1993;SDS011;998;49.906;10.908;2022-07-23T07:50:06;6.03;;;5.07;;
1993;SDS011;998;49.906;10.908;2022-07-23T07:52:34;6.90;;;5.40;;
1993;SDS011;998;49.906;10.908;2022-07-23T07:55:02;6.10;;;5.13;;
1993;SDS011;998;49.906;10.908;2022-07-23T07:57:29;5.40;;;4.70;;
1993;SDS011;998;49.906;10.908;2022-07-23T07:59:56;6.20;;;5.13;;
1993;SDS011;998;49.906;10.908;2022-07-23T08:02:23;8.27;;;5.50;;
1993;SDS011;998;49.906;10.908;2022-07-23T08:04:51;7.23;;;4.20;;
1993;SDS011;998;49.906;10.908;2022-07-23T08:07:18;10.17;;;5.50;;
1993;SDS011;998;49.906;10.908;2022-07-23T08:09:45;9.80;;;5.07;;
1993;SDS011;998;49.906;10.908;2022-07-23T08:12:11;8.23;;;4.83;;
1993;SDS011;998;49.906;10.908;2022-07-23T08:14:38;6.50;;;5.03;;
1993;SDS011;998;49.906;10.908;2022-07-23T08:17:05;7.63;;;5.20;;
1993;SDS011;998;49.906;10.908;2022-07-23T08:19:32;7.47;;;5.60;;
1993;SDS011;998;49.906;10.908;2022-07-23T08:22:00;7.90;;;5.10;;
1993;SDS011;998;49.906;10.908;2022-07-23T08:24:27;9.33;;;5.83;;
1993;SDS011;998;49.906;10.908;2022-07-23T08:26:54;5.83;;;4.87;;
1993;SDS011;998;49.906;10.908;2022-07-23T08:29:21;5.57;;;4.97;;
1993;SDS011;998;49.906;10.908;2022-07-23T08:31:48;8.23;;;4.70;;
1993;SDS011;998;49.906;10.908;2022-07-23T08:34:14;6.97;;;5.60;;
1993;SDS011;998;49.906;10.908;2022-07-23T08:36:41;8.63;;;5.70;;
1993;SDS011;998;49.906;10.908;2022-07-23T08:39:09;9.10;;;5.80;;
1993;SDS011;998;49.906;10.908;2022-07-23T08:41:36;6.43;;;5.37;;
1993;SDS011;998;49.906;10.908;2022-07-23T08:44:07;6.10;;;4.70;;
1993;SDS011;998;49.906;10.908;2022-07-23T08:46:34;9.67;;;6.00;;
1993;SDS011;998;49.906;10.908;2022-07-23T08:49:02;9.10;;;5.90;;
1993;SDS011;998;49.906;10.908;2022-07-23T08:51:30;6.90;;;5.30;;
1993;SDS011;998;49.906;10.908;2022-07-23T08:53:57;9.30;;;6.80;;
1993;SDS011;998;49.906;10.908;2022-07-23T08:56:26;7.33;;;6.00;;
1993;SDS011;998;49.906;10.908;2022-07-23T08:58:53;9.63;;;5.90;;
1993;SDS011;998;49.906;10.908;2022-07-23T09:01:20;10.63;;;5.60;;
1993;SDS011;998;49.906;10.908;2022-07-23T09:03:47;6.73;;;6.03;;
1993;SDS011;998;49.906;10.908;2022-07-23T09:06:14;7.83;;;6.23;;
1993;SDS011;998;49.906;10.908;2022-07-23T09:08:41;8.33;;;5.93;;
1993;SDS011;998;49.906;10.908;2022-07-23T09:11:09;13.17;;;6.57;;
1993;SDS011;998;49.906;10.908;2022-07-23T09:13:39;6.83;;;5.40;;
1993;SDS011;998;49.906;10.908;2022-07-23T09:16:09;8.57;;;6.13;;
1993;SDS011;998;49.906;10.908;2022-07-23T09:18:38;7.13;;;6.43;;
1993;SDS011;998;49.906;10.908;2022-07-23T09:21:10;8.70;;;6.60;;
1993;SDS011;998;49.906;10.908;2022-07-23T09:23:42;9.07;;;7.00;;
1993;SDS011;998;49.906;10.908;2022-07-23T09:26:20;8.40;;;6.70;;
1993;SDS011;998;49.906;10.908;2022-07-23T09:28:56;11.93;;;8.23;;
1993;SDS011;998;49.906;10.908;2022-07-23T09:31:30;14.23;;;7.27;;
1993;SDS011;998;49.906;10.908;2022-07-23T09:34:06;9.60;;;6.73;;
1993;SDS011;998;49.906;10.908;2022-07-23T09:36:35;7.40;;;6.53;;
1993;SDS011;998;49.906;10.908;2022-07-23T09:39:02;7.67;;;5.83;;
1993;SDS011;998;49.906;10.908;2022-07-23T09:41:33;8.43;;;6.70;;
1993;SDS011;998;49.906;10.908;2022-07-23T09:44:07;10.20;;;6.83;;
1993;SDS011;998;49.906;10.908;2022-07-23T09:46:36;15.13;;;6.67;;
1993;SDS011;998;49.906;10.908;2022-07-23T09:49:13;9.53;;;7.23;;
1993;SDS011;998;49.906;10.908;2022-07-23T09:51:48;10.37;;;6.70;;
1993;SDS011;998;49.906;10.908;2022-07-23T09:54:23;9.93;;;7.17;;
1993;SDS011;998;49.906;10.908;2022-07-23T09:56:57;8.70;;;7.40;;
1993;SDS011;998;49.906;10.908;2022-07-23T09:59:26;10.60;;;7.47;;
1993;SDS011;998;49.906;10.908;2022-07-23T10:01:56;7.30;;;6.53;;
1993;SDS011;998;49.906;10.908;2022-07-23T10:04:25;8.47;;;7.57;;
1993;SDS011;998;49.906;10.908;2022-07-23T10:06:54;7.83;;;7.00;;
1993;SDS011;998;49.906;10.908;2022-07-23T10:09:23;8.33;;;7.07;;
1993;SDS011;998;49.906;10.908;2022-07-23T10:11:53;7.50;;;6.57;;
1993;SDS011;998;49.906;10.908;2022-07-23T10:14:27;7.77;;;5.93;;
1993;SDS011;998;49.906;10.908;2022-07-23T10:16:56;8.03;;;7.23;;
1993;SDS011;998;49.906;10.908;2022-07-23T10:19:25;9.00;;;6.57;;
1993;SDS011;998;49.906;10.908;2022-07-23T10:21:54;7.97;;;6.43;;
1993;SDS011;998;49.906;10.908;2022-07-23T10:24:28;10.33;;;6.83;;
1993;SDS011;998;49.906;10.908;2022-07-23T10:27:10;7.20;;;6.40;;
1993;SDS011;998;49.906;10.908;2022-07-23T10:30:03;9.37;;;6.03;;
1993;SDS011;998;49.906;10.908;2022-07-23T10:32:37;7.53;;;6.67;;
1993;SDS011;998;49.906;10.908;2022-07-23T10:35:11;12.10;;;6.17;;
1993;SDS011;998;49.906;10.908;2022-07-23T10:37:45;7.97;;;7.17;;
1993;SDS011;998;49.906;10.908;2022-07-23T10:40:15;7.73;;;6.93;;
1993;SDS011;998;49.906;10.908;2022-07-23T10:42:43;8.90;;;6.80;;
1993;SDS011;998;49.906;10.908;2022-07-23T10:45:28;13.77;;;7.30;;
1993;SDS011;998;49.906;10.908;2022-07-23T10:48:10;12.03;;;7.13;;
1993;SDS011;998;49.906;10.908;2022-07-23T10:50:39;8.17;;;7.03;;
1993;SDS011;998;49.906;10.908;2022-07-23T10:53:08;6.70;;;5.60;;
1993;SDS011;998;49.906;10.908;2022-07-23T10:55:42;11.43;;;7.17;;
1993;SDS011;998;49.906;10.908;2022-07-23T10:58:10;8.40;;;7.23;;
1993;SDS011;998;49.906;10.908;2022-07-23T11:00:44;10.60;;;7.50;;
1993;SDS011;998;49.906;10.908;2022-07-23T11:03:30;9.73;;;8.23;;
1993;SDS011;998;49.906;10.908;2022-07-23T11:06:01;13.60;;;7.93;;
1993;SDS011;998;49.906;10.908;2022-07-23T11:08:28;7.40;;;6.60;;
1993;SDS011;998;49.906;10.908;2022-07-23T11:11:07;9.33;;;7.20;;
1993;SDS011;998;49.906;10.908;2022-07-23T11:13:45;7.87;;;7.03;;
1993;SDS011;998;49.906;10.908;2022-07-23T11:16:19;7.80;;;7.00;;
1993;SDS011;998;49.906;10.908;2022-07-23T11:18:57;12.80;;;7.23;;
1993;SDS011;998;49.906;10.908;2022-07-23T11:24:26;8.13;;;6.93;;
1993;SDS011;998;49.906;10.908;2022-07-23T11:29:40;7.90;;;7.10;;
1993;SDS011;998;49.906;10.908;2022-07-23T11:32:18;7.97;;;6.90;;
1993;SDS011;998;49.906;10.908;2022-07-23T11:34:53;11.10;;;6.90;;
1993;SDS011;998;49.906;10.908;2022-07-23T11:37:34;7.80;;;6.50;;
1993;SDS011;998;49.906;10.908;2022-07-23T11:40:04;8.07;;;7.27;;
1993;SDS011;998;49.906;10.908;2022-07-23T11:42:35;8.00;;;7.07;;
1993;SDS011;998;49.906;10.908;2022-07-23T11:45:04;9.13;;;7.40;;
1993;SDS011;998;49.906;10.908;2022-07-23T11:47:34;7.37;;;6.60;;
1993;SDS011;998;49.906;10.908;2022-07-23T11:50:02;9.33;;;7.27;;
1993;SDS011;998;49.906;10.908;2022-07-23T11:52:31;7.10;;;5.80;;
1993;SDS011;998;49.906;10.908;2022-07-23T11:54:59;8.07;;;6.27;;
1993;SDS011;998;49.906;10.908;2022-07-23T11:57:27;7.10;;;6.00;;
1993;SDS011;998;49.906;10.908;2022-07-23T12:02:24;8.37;;;6.87;;
1993;SDS011;998;49.906;10.908;2022-07-23T12:04:53;8.83;;;6.23;;
1993;SDS011;998;49.906;10.908;2022-07-23T12:07:27;9.80;;;6.47;;
1993;SDS011;998;49.906;10.908;2022-07-23T12:09:56;7.90;;;6.70;;
1993;SDS011;998;49.906;10.908;2022-07-23T12:12:24;7.30;;;5.90;;
1993;SDS011;998;49.906;10.908;2022-07-23T12:14:51;9.87;;;7.40;;
1993;SDS011;998;49.906;10.908;2022-07-23T12:17:20;7.50;;;6.80;;
1993;SDS011;998;49.906;10.908;2022-07-23T12:19:47;8.33;;;6.30;;
1993;SDS011;998;49.906;10.908;2022-07-23T12:22:16;7.80;;;7.00;;
1993;SDS011;998;49.906;10.908;2022-07-23T12:24:52;10.70;;;6.40;;
1993;SDS011;998;49.906;10.908;2022-07-23T12:27:23;10.40;;;6.70;;
1993;SDS011;998;49.906;10.908;2022-07-23T12:29:50;9.13;;;6.23;;
1993;SDS011;998;49.906;10.908;2022-07-23T12:32:21;7.67;;;6.10;;
1993;SDS011;998;49.906;10.908;2022-07-23T12:34:50;9.23;;;6.63;;
1993;SDS011;998;49.906;10.908;2022-07-23T12:37:34;8.13;;;6.30;;
1993;SDS011;998;49.906;10.908;2022-07-23T12:40:19;6.63;;;5.90;;
1993;SDS011;998;49.906;10.908;2022-07-23T12:42:51;6.23;;;5.60;;
1993;SDS011;998;49.906;10.908;2022-07-23T12:45:23;8.47;;;7.40;;
1993;SDS011;998;49.906;10.908;2022-07-23T12:48:03;9.43;;;6.23;;
1993;SDS011;998;49.906;10.908;2022-07-23T12:50:42;8.07;;;6.03;;
1993;SDS011;998;49.906;10.908;2022-07-23T12:53:13;8.30;;;6.07;;
1993;SDS011;998;49.906;10.908;2022-07-23T12:55:42;8.13;;;5.70;;
1993;SDS011;998;49.906;10.908;2022-07-23T12:58:11;9.03;;;8.13;;
1993;SDS011;998;49.906;10.908;2022-07-23T13:00:54;7.60;;;6.07;;
1993;SDS011;998;49.906;10.908;2022-07-23T13:03:27;6.77;;;5.17;;
1993;SDS011;998;49.906;10.908;2022-07-23T13:05:59;10.93;;;6.03;;
1993;SDS011;998;49.906;10.908;2022-07-23T13:08:30;7.07;;;5.97;;
1993;SDS011;998;49.906;10.908;2022-07-23T13:10:58;8.10;;;5.43;;
1993;SDS011;998;49.906;10.908;2022-07-23T13:13:26;7.50;;;5.50;;
1993;SDS011;998;49.906;10.908;2022-07-23T13:15:55;6.43;;;5.40;;
1993;SDS011;998;49.906;10.908;2022-07-23T13:18:24;6.40;;;5.80;;
1993;SDS011;998;49.906;10.908;2022-07-23T13:20:51;7.30;;;5.87;;
1993;SDS011;998;49.906;10.908;2022-07-23T13:23:18;7.27;;;6.30;;
1993;SDS011;998;49.906;10.908;2022-07-23T13:25:47;6.90;;;5.57;;
1993;SDS011;998;49.906;10.908;2022-07-23T13:28:15;6.23;;;5.03;;
1993;SDS011;998;49.906;10.908;2022-07-23T13:30:43;5.80;;;5.20;;
1993;SDS011;998;49.906;10.908;2022-07-23T13:33:11;7.33;;;5.30;;
1993;SDS011;998;49.906;10.908;2022-07-23T13:35:38;6.17;;;5.43;;
1993;SDS011;998;49.906;10.908;2022-07-23T13:38:05;8.53;;;5.37;;
1993;SDS011;998;49.906;10.908;2022-07-23T13:40:33;6.93;;;5.70;;
1993;SDS011;998;49.906;10.908;2022-07-23T13:43:02;11.47;;;5.60;;
1993;SDS011;998;49.906;10.908;2022-07-23T13:45:30;5.53;;;4.90;;
1993;SDS011;998;49.906;10.908;2022-07-23T13:47:57;6.27;;;5.67;;
1993;SDS011;998;49.906;10.908;2022-07-23T13:50:23;6.03;;;5.43;;
1993;SDS011;998;49.906;10.908;2022-07-23T13:52:50;7.47;;;5.50;;
1993;SDS011;998;49.906;10.908;2022-07-23T13:55:17;6.83;;;5.33;;
1993;SDS011;998;49.906;10.908;2022-07-23T13:57:44;6.10;;;5.30;;
1993;SDS011;998;49.906;10.908;2022-07-23T14:00:13;6.63;;;5.20;;
1993;SDS011;998;49.906;10.908;2022-07-23T14:02:40;6.07;;;5.43;;
1993;SDS011;998;49.906;10.908;2022-07-23T14:05:08;8.00;;;5.27;;
1993;SDS011;998;49.906;10.908;2022-07-23T14:07:36;5.87;;;5.27;;
1993;SDS011;998;49.906;10.908;2022-07-23T14:10:05;13.87;;;5.87;;
1993;SDS011;998;49.906;10.908;2022-07-23T14:12:33;8.23;;;5.40;;
1993;SDS011;998;49.906;10.908;2022-07-23T14:15:00;10.10;;;5.97;;
1993;SDS011;998;49.906;10.908;2022-07-23T14:17:29;6.50;;;5.03;;
1993;SDS011;998;49.906;10.908;2022-07-23T14:19:56;6.60;;;5.50;;
1993;SDS011;998;49.906;10.908;2022-07-23T14:22:24;10.00;;;5.13;;
1993;SDS011;998;49.906;10.908;2022-07-23T14:24:51;5.83;;;5.07;;
1993;SDS011;998;49.906;10.908;2022-07-23T14:27:17;7.10;;;4.87;;
1993;SDS011;998;49.906;10.908;2022-07-23T14:29:44;9.60;;;4.53;;
1993;SDS011;998;49.906;10.908;2022-07-23T14:32:11;6.43;;;5.60;;
1993;SDS011;998;49.906;10.908;2022-07-23T14:34:40;6.10;;;5.50;;
1993;SDS011;998;49.906;10.908;2022-07-23T14:37:06;5.67;;;5.10;;
1993;SDS011;998;49.906;10.908;2022-07-23T14:39:33;7.30;;;5.20;;
1993;SDS011;998;49.906;10.908;2022-07-23T14:42:01;6.90;;;5.10;;
1993;SDS011;998;49.906;10.908;2022-07-23T14:44:28;5.93;;;5.33;;
1993;SDS011;998;49.906;10.908;2022-07-23T14:46:55;7.13;;;5.30;;
1993;SDS011;998;49.906;10.908;2022-07-23T14:49:22;6.73;;;5.60;;
1993;SDS011;998;49.906;10.908;2022-07-23T14:51:50;9.80;;;5.83;;
1993;SDS011;998;49.906;10.908;2022-07-23T14:54:17;5.77;;;5.17;;
1993;SDS011;998;49.906;10.908;2022-07-23T14:56:44;12.93;;;5.30;;
1993;SDS011;998;49.906;10.908;2022-07-23T14:59:11;13.07;;;5.37;;
1993;SDS011;998;49.906;10.908;2022-07-23T15:01:39;6.77;;;5.50;;
1993;SDS011;998;49.906;10.908;2022-07-23T15:04:06;5.20;;;4.70;;
1993;SDS011;998;49.906;10.908;2022-07-23T15:06:33;7.47;;;5.20;;
1993;SDS011;998;49.906;10.908;2022-07-23T15:09:01;6.50;;;5.23;;
1993;SDS011;998;49.906;10.908;2022-07-23T15:11:28;5.90;;;4.70;;
1993;SDS011;998;49.906;10.908;2022-07-23T15:13:58;7.20;;;5.30;;
1993;SDS011;998;49.906;10.908;2022-07-23T15:16:25;5.97;;;5.37;;
1993;SDS011;998;49.906;10.908;2022-07-23T15:18:52;10.43;;;5.03;;
1993;SDS011;998;49.906;10.908;2022-07-23T15:21:19;7.43;;;5.77;;
1993;SDS011;998;49.906;10.908;2022-07-23T15:23:46;5.90;;;4.73;;
1993;SDS011;998;49.906;10.908;2022-07-23T15:26:15;6.90;;;5.40;;
1993;SDS011;998;49.906;10.908;2022-07-23T15:28:43;7.40;;;5.20;;
1993;SDS011;998;49.906;10.908;2022-07-23T15:31:10;8.27;;;4.70;;
1993;SDS011;998;49.906;10.908;2022-07-23T15:33:37;7.70;;;5.40;;
1993;SDS011;998;49.906;10.908;2022-07-23T15:36:05;6.07;;;5.27;;
1993;SDS011;998;49.906;10.908;2022-07-23T15:38:32;7.30;;;5.43;;
1993;SDS011;998;49.906;10.908;2022-07-23T15:40:59;6.30;;;4.80;;
1993;SDS011;998;49.906;10.908;2022-07-23T15:43:27;7.10;;;5.10;;
1993;SDS011;998;49.906;10.908;2022-07-23T15:45:55;8.77;;;5.00;;
1993;SDS011;998;49.906;10.908;2022-07-23T15:48:21;5.70;;;4.87;;
1993;SDS011;998;49.906;10.908;2022-07-23T15:50:48;6.13;;;4.63;;
1993;SDS011;998;49.906;10.908;2022-07-23T15:53:16;5.40;;;4.83;;
1993;SDS011;998;49.906;10.908;2022-07-23T15:55:43;7.17;;;5.40;;
1993;SDS011;998;49.906;10.908;2022-07-23T15:58:11;5.70;;;4.57;;
1993;SDS011;998;49.906;10.908;2022-07-23T16:00:40;5.50;;;5.00;;
1993;SDS011;998;49.906;10.908;2022-07-23T16:03:07;5.87;;;5.00;;
1993;SDS011;998;49.906;10.908;2022-07-23T16:05:33;6.33;;;4.80;;
1993;SDS011;998;49.906;10.908;2022-07-23T16:08:01;5.80;;;4.40;;
1993;SDS011;998;49.906;10.908;2022-07-23T16:10:29;4.97;;;4.47;;
1993;SDS011;998;49.906;10.908;2022-07-23T16:12:56;5.23;;;4.47;;
1993;SDS011;998;49.906;10.908;2022-07-23T16:15:23;5.07;;;4.53;;
1993;SDS011;998;49.906;10.908;2022-07-23T16:17:51;5.43;;;4.60;;
1993;SDS011;998;49.906;10.908;2022-07-23T16:20:19;7.83;;;5.53;;
1993;SDS011;998;49.906;10.908;2022-07-23T16:22:46;6.27;;;4.73;;
1993;SDS011;998;49.906;10.908;2022-07-23T16:25:13;6.33;;;4.67;;
1993;SDS011;998;49.906;10.908;2022-07-23T16:27:40;6.90;;;5.00;;
1993;SDS011;998;49.906;10.908;2022-07-23T16:30:08;9.03;;;5.27;;
1993;SDS011;998;49.906;10.908;2022-07-23T16:32:36;5.37;;;4.83;;
1993;SDS011;998;49.906;10.908;2022-07-23T16:35:13;6.90;;;5.23;;
1993;SDS011;998;49.906;10.908;2022-07-23T16:38:21;5.80;;;4.73;;
1993;SDS011;998;49.906;10.908;2022-07-23T16:44:14;5.70;;;4.50;;
1993;SDS011;998;49.906;10.908;2022-07-23T16:46:55;10.77;;;5.67;;
1993;SDS011;998;49.906;10.908;2022-07-23T16:49:22;7.40;;;5.53;;
1993;SDS011;998;49.906;10.908;2022-07-23T16:51:56;10.20;;;5.47;;
1993;SDS011;998;49.906;10.908;2022-07-23T16:54:25;7.07;;;4.73;;
1993;SDS011;998;49.906;10.908;2022-07-23T16:56:52;6.50;;;5.47;;
1993;SDS011;998;49.906;10.908;2022-07-23T16:59:22;5.80;;;5.20;;
1993;SDS011;998;49.906;10.908;2022-07-23T17:01:53;10.17;;;5.37;;
1993;SDS011;998;49.906;10.908;2022-07-23T17:04:20;8.73;;;5.90;;
1993;SDS011;998;49.906;10.908;2022-07-23T17:06:48;7.23;;;4.80;;
1993;SDS011;998;49.906;10.908;2022-07-23T17:09:20;5.00;;;4.50;;
1993;SDS011;998;49.906;10.908;2022-07-23T17:11:47;5.97;;;5.00;;
1993;SDS011;998;49.906;10.908;2022-07-23T17:14:16;5.00;;;4.50;;
1993;SDS011;998;49.906;10.908;2022-07-23T17:16:48;6.43;;;5.33;;
1993;SDS011;998;49.906;10.908;2022-07-23T17:19:20;5.23;;;4.73;;
1993;SDS011;998;49.906;10.908;2022-07-23T17:22:00;4.63;;;4.13;;
1993;SDS011;998;49.906;10.908;2022-07-23T17:24:40;6.43;;;5.23;;
1993;SDS011;998;49.906;10.908;2022-07-23T17:27:16;11.77;;;6.87;;
1993;SDS011;998;49.906;10.908;2022-07-23T17:29:43;5.40;;;4.30;;
1993;SDS011;998;49.906;10.908;2022-07-23T17:32:10;6.50;;;4.97;;
1993;SDS011;998;49.906;10.908;2022-07-23T17:34:40;7.43;;;4.30;;
1993;SDS011;998;49.906;10.908;2022-07-23T17:37:09;6.10;;;4.20;;
1993;SDS011;998;49.906;10.908;2022-07-23T17:39:36;6.90;;;4.90;;
1993;SDS011;998;49.906;10.908;2022-07-23T17:42:09;6.40;;;4.70;;
1993;SDS011;998;49.906;10.908;2022-07-23T17:44:36;5.93;;;4.60;;
1993;SDS011;998;49.906;10.908;2022-07-23T17:47:07;6.77;;;4.83;;
1993;SDS011;998;49.906;10.908;2022-07-23T17:49:34;6.90;;;4.93;;
1993;SDS011;998;49.906;10.908;2022-07-23T17:52:01;11.13;;;4.63;;
1993;SDS011;998;49.906;10.908;2022-07-23T17:54:29;6.77;;;4.77;;
1993;SDS011;998;49.906;10.908;2022-07-23T17:56:57;6.13;;;4.50;;
1993;SDS011;998;49.906;10.908;2022-07-23T17:59:25;7.73;;;5.00;;
1993;SDS011;998;49.906;10.908;2022-07-23T18:01:52;5.30;;;4.43;;
1993;SDS011;998;49.906;10.908;2022-07-23T18:04:19;8.80;;;4.07;;
1993;SDS011;998;49.906;10.908;2022-07-23T18:06:46;9.47;;;4.50;;
1993;SDS011;998;49.906;10.908;2022-07-23T18:09:15;16.03;;;4.90;;
1993;SDS011;998;49.906;10.908;2022-07-23T18:11:42;6.60;;;3.93;;
1993;SDS011;998;49.906;10.908;2022-07-23T18:14:10;9.30;;;4.30;;
1993;SDS011;998;49.906;10.908;2022-07-23T18:16:38;5.33;;;4.37;;
1993;SDS011;998;49.906;10.908;2022-07-23T18:19:06;5.83;;;4.30;;
1993;SDS011;998;49.906;10.908;2022-07-23T18:21:34;12.70;;;4.57;;
1993;SDS011;998;49.906;10.908;2022-07-23T18:24:01;5.87;;;4.70;;
1993;SDS011;998;49.906;10.908;2022-07-23T18:26:28;6.90;;;4.97;;
1993;SDS011;998;49.906;10.908;2022-07-23T18:28:54;6.80;;;4.30;;
1993;SDS011;998;49.906;10.908;2022-07-23T18:31:21;5.47;;;4.47;;
1993;SDS011;998;49.906;10.908;2022-07-23T18:33:52;5.10;;;4.10;;
1993;SDS011;998;49.906;10.908;2022-07-23T18:36:22;4.37;;;3.97;;
1993;SDS011;998;49.906;10.908;2022-07-23T18:38:49;5.57;;;4.20;;
1993;SDS011;998;49.906;10.908;2022-07-23T18:41:16;7.33;;;4.03;;
1993;SDS011;998;49.906;10.908;2022-07-23T18:43:43;4.37;;;3.50;;
1993;SDS011;998;49.906;10.908;2022-07-23T18:46:12;9.20;;;5.17;;
1993;SDS011;998;49.906;10.908;2022-07-23T18:48:40;8.23;;;4.13;;